createdAt,value
2017-08-09T00:00:00.427Z,0
2017-08-09T00:00:59.783Z,0
2017-08-09T00:01:59.772Z,0
2017-08-09T00:02:59.767Z,0
2017-08-09T00:04:00.067Z,0
2017-08-09T00:04:59.732Z,0
2017-08-09T00:05:59.407Z,0
2017-08-09T00:07:00.016Z,0
2017-08-09T00:08:00.010Z,0
2017-08-09T00:09:00.313Z,0
2017-08-09T00:09:59.974Z,0
2017-08-09T00:11:00.276Z,0
2017-08-09T00:12:00.261Z,0
2017-08-09T00:13:00.312Z,0
2017-08-09T00:13:59.928Z,0
2017-08-09T00:14:59.603Z,0
2017-08-09T00:16:00.211Z,0
2017-08-09T00:16:59.892Z,0
2017-08-09T00:18:00.180Z,0
2017-08-09T00:18:59.864Z,0
2017-08-09T00:19:59.843Z,0
2017-08-09T00:20:59.214Z,0
2017-08-09T00:21:59.825Z,0
2017-08-09T00:23:00.122Z,0
2017-08-09T00:24:00.112Z,0
2017-08-09T00:24:59.469Z,0
2017-08-09T00:25:59.454Z,0
2017-08-09T00:26:59.755Z,0
2017-08-09T00:27:59.748Z,0
2017-08-09T00:28:59.727Z,0
2017-08-09T00:29:59.777Z,0
2017-08-09T00:30:59.400Z,0
2017-08-09T00:31:59.692Z,0
2017-08-09T00:32:59.678Z,0
2017-08-09T00:33:59.659Z,0
2017-08-09T00:34:59.347Z,0
2017-08-09T00:35:59.327Z,0
2017-08-09T00:36:59.317Z,0
2017-08-09T00:37:59.620Z,0
2017-08-09T00:38:59.601Z,0
2017-08-09T00:39:59.901Z,0
2017-08-09T00:40:59.583Z,0
2017-08-09T00:41:59.564Z,0
2017-08-09T00:42:59.862Z,0
2017-08-09T00:43:59.231Z,0
2017-08-09T00:44:59.523Z,0
2017-08-09T00:45:59.204Z,0
2017-08-09T00:46:58.915Z,0
2017-08-09T00:47:59.169Z,0
2017-08-09T00:48:59.481Z,0
2017-08-09T00:49:59.463Z,0
2017-08-09T00:50:59.452Z,0
2017-08-09T00:51:59.435Z,0
2017-08-09T00:52:59.742Z,0
2017-08-09T00:53:59.428Z,0
2017-08-09T00:54:59.404Z,0
2017-08-09T00:55:59.382Z,0
2017-08-09T00:56:59.692Z,0
2017-08-09T00:57:59.045Z,0
2017-08-09T00:58:59.354Z,0
2017-08-09T00:59:59.342Z,0
2017-08-09T01:00:59.320Z,0
2017-08-09T01:01:59.321Z,0
2017-08-09T01:02:58.983Z,0
2017-08-09T01:03:59.280Z,0
2017-08-09T01:04:59.294Z,0
2017-08-09T01:05:59.581Z,0
2017-08-09T01:06:58.617Z,0
2017-08-09T01:07:59.232Z,0
2017-08-09T01:08:59.532Z,0
2017-08-09T01:09:59.204Z,0
2017-08-09T01:10:58.881Z,0
2017-08-09T01:11:59.507Z,0
2017-08-09T01:12:59.484Z,0
2017-08-09T01:13:59.471Z,0
2017-08-09T01:14:59.155Z,0
2017-08-09T01:15:58.828Z,0
2017-08-09T01:16:58.809Z,0
2017-08-09T01:17:59.482Z,0
2017-08-09T01:18:58.788Z,0
2017-08-09T01:19:59.088Z,0
2017-08-09T01:20:59.063Z,0
2017-08-09T01:21:58.744Z,0
2017-08-09T01:22:58.417Z,0
2017-08-09T01:23:59.031Z,0
2017-08-09T01:24:59.021Z,0
2017-08-09T01:25:59.002Z,0
2017-08-09T01:26:58.990Z,0
2017-08-09T01:27:58.668Z,0
2017-08-09T01:28:58.655Z,0
2017-08-09T01:29:59.271Z,0
2017-08-09T01:30:58.942Z,0
2017-08-09T01:31:58.300Z,0
2017-08-09T01:32:59.226Z,0
2017-08-09T01:33:59.414Z,0
2017-08-09T01:34:58.890Z,0
2017-08-09T01:35:58.571Z,0
2017-08-09T01:36:58.548Z,0
2017-08-09T01:37:58.852Z,0
2017-08-09T01:38:59.161Z,0
2017-08-09T01:39:58.513Z,0
2017-08-09T01:40:58.224Z,0
2017-08-09T01:41:58.806Z,0
2017-08-09T01:42:59.102Z,0
2017-08-09T01:43:58.466Z,0
2017-08-09T01:44:58.770Z,0
2017-08-09T01:45:59.064Z,0
2017-08-09T01:46:58.738Z,0
2017-08-09T01:47:59.040Z,0
2017-08-09T01:48:59.029Z,0
2017-08-09T01:49:58.396Z,0
2017-08-09T01:50:59.006Z,0
2017-08-09T01:51:58.370Z,0
2017-08-09T01:52:58.364Z,0
2017-08-09T01:53:58.338Z,0
2017-08-09T01:54:58.015Z,0
2017-08-09T01:55:58.637Z,0
2017-08-09T01:56:58.618Z,0
2017-08-09T01:57:58.289Z,0
2017-08-09T01:58:58.584Z,0
2017-08-09T01:59:58.893Z,0
2017-08-09T02:00:58.572Z,0
2017-08-09T02:01:58.555Z,0
2017-08-09T02:02:58.221Z,0
2017-08-09T02:03:58.549Z,0
2017-08-09T02:04:58.207Z,0
2017-08-09T02:05:58.508Z,0
2017-08-09T02:06:58.186Z,0
2017-08-09T02:07:58.164Z,0
2017-08-09T02:08:58.151Z,0
2017-08-09T02:09:58.768Z,0
2017-08-09T02:10:58.753Z,0
2017-08-09T02:11:58.118Z,0
2017-08-09T02:12:58.149Z,0
2017-08-09T02:13:58.401Z,0
2017-08-09T02:14:58.070Z,0
2017-08-09T02:15:58.684Z,0
2017-08-09T02:16:58.371Z,0
2017-08-09T02:17:58.360Z,0
2017-08-09T02:18:58.649Z,0
2017-08-09T02:19:58.321Z,0
2017-08-09T02:20:58.316Z,0
2017-08-09T02:21:58.620Z,0
2017-08-09T02:22:57.975Z,0
2017-08-09T02:23:58.274Z,0
2017-08-09T02:24:58.261Z,0
2017-08-09T02:25:57.620Z,0
2017-08-09T02:26:57.604Z,0
2017-08-09T02:27:58.532Z,0
2017-08-09T02:28:57.893Z,0
2017-08-09T02:29:58.194Z,0
2017-08-09T02:30:57.866Z,0
2017-08-09T02:31:57.860Z,0
2017-08-09T02:32:58.182Z,0
2017-08-09T02:33:58.455Z,0
2017-08-09T02:34:58.138Z,0
2017-08-09T02:35:57.812Z,0
2017-08-09T02:36:58.418Z,0
2017-08-09T02:37:58.464Z,0
2017-08-09T02:38:58.090Z,0
2017-08-09T02:39:58.389Z,0
2017-08-09T02:40:58.090Z,0
2017-08-09T02:41:58.041Z,0
2017-08-09T02:42:57.720Z,0
2017-08-09T02:43:58.027Z,0
2017-08-09T02:44:57.692Z,0
2017-08-09T02:45:58.313Z,0
2017-08-09T02:46:57.977Z,0
2017-08-09T02:47:57.658Z,0
2017-08-09T02:48:57.330Z,0
2017-08-09T02:49:58.256Z,0
2017-08-09T02:50:57.615Z,0
2017-08-09T02:51:57.605Z,0
2017-08-09T02:52:58.216Z,0
2017-08-09T02:53:58.204Z,0
2017-08-09T02:54:58.190Z,0
2017-08-09T02:55:57.551Z,0
2017-08-09T02:56:58.175Z,0
2017-08-09T02:57:57.837Z,0
2017-08-09T02:58:57.565Z,0
2017-08-09T02:59:57.501Z,0
2017-08-09T03:00:58.106Z,0
2017-08-09T03:01:57.480Z,0
2017-08-09T03:02:57.773Z,0
2017-08-09T03:03:57.763Z,0
2017-08-09T03:04:57.769Z,0
2017-08-09T03:05:58.051Z,0
2017-08-09T03:06:58.046Z,0
2017-08-09T03:07:57.705Z,0
2017-08-09T03:08:58.013Z,0
2017-08-09T03:09:57.067Z,0
2017-08-09T03:10:57.673Z,0
2017-08-09T03:11:57.969Z,0
2017-08-09T03:12:57.882Z,0
2017-08-09T03:13:57.949Z,0
2017-08-09T03:14:57.308Z,0
2017-08-09T03:15:57.611Z,0
2017-08-09T03:16:57.285Z,0
2017-08-09T03:17:56.954Z,0
2017-08-09T03:18:57.885Z,0
2017-08-09T03:19:57.565Z,0
2017-08-09T03:20:57.857Z,0
2017-08-09T03:21:57.529Z,0
2017-08-09T03:22:57.516Z,0
2017-08-09T03:23:57.820Z,0
2017-08-09T03:24:57.509Z,0
2017-08-09T03:25:57.488Z,0
2017-08-09T03:26:57.479Z,0
2017-08-09T03:27:57.488Z,0
2017-08-09T03:28:56.814Z,0
2017-08-09T03:29:57.794Z,0
2017-08-09T03:30:57.762Z,0
2017-08-09T03:31:56.780Z,0
2017-08-09T03:32:57.073Z,0
2017-08-09T03:33:57.065Z,0
2017-08-09T03:34:57.572Z,0
2017-08-09T03:35:57.662Z,4
2017-08-09T03:36:57.336Z,4
2017-08-09T03:37:57.012Z,4
2017-08-09T03:38:57.002Z,0
2017-08-09T03:39:57.617Z,4
2017-08-09T03:40:56.989Z,4
2017-08-09T03:41:57.274Z,8
2017-08-09T03:42:57.572Z,4
2017-08-09T03:43:57.563Z,8
2017-08-09T03:44:57.288Z,8
2017-08-09T03:45:57.228Z,8
2017-08-09T03:46:57.242Z,8
2017-08-09T03:47:56.893Z,12
2017-08-09T03:48:57.185Z,12
2017-08-09T03:49:57.177Z,12
2017-08-09T03:50:57.169Z,12
2017-08-09T03:51:56.853Z,16
2017-08-09T03:52:56.824Z,16
2017-08-09T03:53:57.444Z,16
2017-08-09T03:54:57.126Z,20
2017-08-09T03:55:57.113Z,16
2017-08-09T03:56:57.087Z,20
2017-08-09T03:57:57.076Z,24
2017-08-09T03:58:56.761Z,32
2017-08-09T03:59:57.070Z,36
2017-08-09T04:00:57.073Z,32
2017-08-09T04:01:57.339Z,36
2017-08-09T04:02:56.583Z,44
2017-08-09T04:03:57.005Z,60
2017-08-09T04:04:57.311Z,72
2017-08-09T04:05:56.973Z,80
2017-08-09T04:06:56.963Z,88
2017-08-09T04:07:57.264Z,84
2017-08-09T04:08:56.941Z,92
2017-08-09T04:09:56.927Z,92
2017-08-09T04:10:56.288Z,104
2017-08-09T04:11:56.600Z,116
2017-08-09T04:12:56.577Z,128
2017-08-09T04:13:57.197Z,144
2017-08-09T04:14:56.891Z,160
2017-08-09T04:15:56.853Z,180
2017-08-09T04:16:56.837Z,196
2017-08-09T04:17:56.824Z,204
2017-08-09T04:18:57.131Z,216
2017-08-09T04:19:57.115Z,228
2017-08-09T04:20:56.788Z,240
2017-08-09T04:21:57.091Z,252
2017-08-09T04:22:56.773Z,260
2017-08-09T04:23:56.753Z,280
2017-08-09T04:24:56.428Z,316
2017-08-09T04:25:56.727Z,352
2017-08-09T04:26:57.022Z,380
2017-08-09T04:27:56.711Z,416
2017-08-09T04:28:56.689Z,440
2017-08-09T04:29:56.365Z,464
2017-08-09T04:30:56.685Z,480
2017-08-09T04:31:56.654Z,504
2017-08-09T04:32:56.329Z,520
2017-08-09T04:33:56.633Z,548
2017-08-09T04:34:56.691Z,564
2017-08-09T04:35:56.603Z,528
2017-08-09T04:36:56.287Z,528
2017-08-09T04:37:55.963Z,524
2017-08-09T04:38:56.879Z,520
2017-08-09T04:39:56.871Z,536
2017-08-09T04:40:56.857Z,556
2017-08-09T04:41:56.841Z,616
2017-08-09T04:42:56.521Z,700
2017-08-09T04:43:56.844Z,784
2017-08-09T04:44:56.497Z,772
2017-08-09T04:45:56.486Z,676
2017-08-09T04:46:56.470Z,524
2017-08-09T04:47:55.829Z,408
2017-08-09T04:48:56.459Z,400
2017-08-09T04:49:56.434Z,512
2017-08-09T04:50:56.753Z,540
2017-08-09T04:51:56.712Z,540
2017-08-09T04:52:56.428Z,516
2017-08-09T04:53:56.078Z,576
2017-08-09T04:54:56.373Z,664
2017-08-09T04:55:56.050Z,724
2017-08-09T04:56:56.658Z,872
2017-08-09T04:57:56.340Z,900
2017-08-09T04:58:56.023Z,736
2017-08-09T04:59:56.306Z,604
2017-08-09T05:00:56.614Z,604
2017-08-09T05:01:56.287Z,560
2017-08-09T05:02:55.956Z,500
2017-08-09T05:03:56.258Z,448
2017-08-09T05:04:56.244Z,444
2017-08-09T05:05:56.548Z,388
2017-08-09T05:06:55.905Z,336
2017-08-09T05:07:56.523Z,224
2017-08-09T05:08:56.190Z,204
2017-08-09T05:09:56.493Z,240
2017-08-09T05:10:56.167Z,316
2017-08-09T05:11:56.156Z,432
2017-08-09T05:12:56.142Z,532
2017-08-09T05:13:55.835Z,608
2017-08-09T05:14:55.810Z,628
2017-08-09T05:15:55.792Z,640
2017-08-09T05:16:55.801Z,648
2017-08-09T05:17:55.772Z,664
2017-08-09T05:18:56.075Z,592
2017-08-09T05:19:56.386Z,560
2017-08-09T05:20:56.046Z,652
2017-08-09T05:21:55.725Z,748
2017-08-09T05:22:56.032Z,852
2017-08-09T05:23:56.335Z,1012
2017-08-09T05:24:55.997Z,952
2017-08-09T05:25:55.676Z,884
2017-08-09T05:26:55.664Z,772
2017-08-09T05:27:55.967Z,680
2017-08-09T05:28:55.957Z,616
2017-08-09T05:29:56.250Z,576
2017-08-09T05:30:55.622Z,560
2017-08-09T05:31:56.227Z,492
2017-08-09T05:32:55.613Z,420
2017-08-09T05:33:55.889Z,400
2017-08-09T05:34:56.078Z,404
2017-08-09T05:35:55.865Z,432
2017-08-09T05:36:56.176Z,464
2017-08-09T05:37:55.853Z,496
2017-08-09T05:38:55.510Z,552
2017-08-09T05:39:56.133Z,552
2017-08-09T05:40:55.804Z,496
2017-08-09T05:41:55.793Z,412
2017-08-09T05:42:55.783Z,352
2017-08-09T05:43:56.077Z,332
2017-08-09T05:44:55.442Z,324
2017-08-09T05:45:55.792Z,292
2017-08-09T05:46:56.049Z,272
2017-08-09T05:47:55.716Z,272
2017-08-09T05:48:55.714Z,244
2017-08-09T05:49:55.694Z,256
2017-08-09T05:50:55.361Z,324
2017-08-09T05:51:55.670Z,412
2017-08-09T05:52:55.659Z,488
2017-08-09T05:53:55.336Z,684
2017-08-09T05:54:55.628Z,960
2017-08-09T05:55:55.304Z,860
2017-08-09T05:56:55.918Z,996
2017-08-09T05:57:55.909Z,1028
2017-08-09T05:58:55.467Z,1020
2017-08-09T05:59:55.877Z,1216
2017-08-09T06:00:55.557Z,1240
2017-08-09T06:01:55.852Z,1212
2017-08-09T06:02:55.221Z,1296
2017-08-09T06:03:55.519Z,1300
2017-08-09T06:04:55.202Z,1284
2017-08-09T06:05:55.492Z,1220
2017-08-09T06:06:55.481Z,1148
2017-08-09T06:07:55.785Z,1296
2017-08-09T06:08:55.465Z,1336
2017-08-09T06:09:55.758Z,1304
2017-08-09T06:10:55.146Z,1392
2017-08-09T06:11:55.423Z,1340
2017-08-09T06:12:55.716Z,1096
2017-08-09T06:13:55.753Z,1140
2017-08-09T06:14:55.393Z,1248
2017-08-09T06:15:55.372Z,1404
2017-08-09T06:16:55.046Z,1548
2017-08-09T06:17:54.737Z,1760
2017-08-09T06:18:55.337Z,1848
2017-08-09T06:19:55.326Z,1648
2017-08-09T06:20:55.623Z,1420
2017-08-09T06:21:55.306Z,1404
2017-08-09T06:22:55.290Z,1524
2017-08-09T06:23:55.271Z,1552
2017-08-09T06:24:55.261Z,1556
2017-08-09T06:25:55.566Z,1420
2017-08-09T06:26:55.244Z,1420
2017-08-09T06:27:54.914Z,1316
2017-08-09T06:28:55.226Z,1276
2017-08-09T06:29:55.528Z,1328
2017-08-09T06:30:55.507Z,1344
2017-08-09T06:31:55.494Z,1324
2017-08-09T06:32:54.860Z,1320
2017-08-09T06:33:55.160Z,1316
2017-08-09T06:34:54.832Z,1364
2017-08-09T06:35:55.134Z,1396
2017-08-09T06:36:55.437Z,1492
2017-08-09T06:37:54.801Z,1568
2017-08-09T06:38:55.089Z,1628
2017-08-09T06:39:54.457Z,1712
2017-08-09T06:40:55.382Z,1812
2017-08-09T06:41:55.063Z,1920
2017-08-09T06:42:55.045Z,2064
2017-08-09T06:43:54.721Z,2228
2017-08-09T06:44:54.709Z,2296
2017-08-09T06:45:55.008Z,2284
2017-08-09T06:46:54.998Z,2320
2017-08-09T06:47:54.986Z,2352
2017-08-09T06:48:55.295Z,2440
2017-08-09T06:49:54.365Z,2488
2017-08-09T06:50:54.638Z,2500
2017-08-09T06:51:54.935Z,2536
2017-08-09T06:52:54.922Z,2584
2017-08-09T06:53:54.912Z,2596
2017-08-09T06:54:54.904Z,2604
2017-08-09T06:55:54.899Z,2684
2017-08-09T06:56:54.568Z,2748
2017-08-09T06:57:54.865Z,2732
2017-08-09T06:58:54.851Z,2516
2017-08-09T06:59:54.854Z,2352
2017-08-09T07:00:55.183Z,2596
2017-08-09T07:01:55.128Z,2836
2017-08-09T07:02:54.516Z,2888
2017-08-09T07:03:55.107Z,3064
2017-08-09T07:04:55.167Z,3280
2017-08-09T07:05:54.461Z,3508
2017-08-09T07:06:54.446Z,4012
2017-08-09T07:07:54.748Z,4136
2017-08-09T07:08:55.049Z,2964
2017-08-09T07:09:55.043Z,2908
2017-08-09T07:10:54.713Z,3484
2017-08-09T07:11:55.033Z,3508
2017-08-09T07:12:54.688Z,4228
2017-08-09T07:13:54.052Z,4884
2017-08-09T07:14:54.980Z,4400
2017-08-09T07:15:54.028Z,4408
2017-08-09T07:16:54.964Z,4428
2017-08-09T07:17:54.317Z,4496
2017-08-09T07:18:54.619Z,4856
2017-08-09T07:19:55.121Z,5056
2017-08-09T07:20:54.595Z,4592
2017-08-09T07:21:54.584Z,4540
2017-08-09T07:22:54.566Z,5360
2017-08-09T07:23:54.557Z,6260
2017-08-09T07:24:54.546Z,4104
2017-08-09T07:25:54.541Z,2556
2017-08-09T07:26:54.536Z,3028
2017-08-09T07:27:53.889Z,4276
2017-08-09T07:28:54.191Z,4368
2017-08-09T07:29:54.178Z,4616
2017-08-09T07:30:54.476Z,5104
2017-08-09T07:31:54.781Z,5704
2017-08-09T07:32:54.767Z,6184
2017-08-09T07:33:54.757Z,6540
2017-08-09T07:34:54.954Z,6536
2017-08-09T07:35:54.105Z,7240
2017-08-09T07:36:54.107Z,7524
2017-08-09T07:37:54.405Z,7508
2017-08-09T07:38:54.384Z,7576
2017-08-09T07:39:54.688Z,7496
2017-08-09T07:40:53.754Z,8624
2017-08-09T07:41:54.664Z,7480
2017-08-09T07:42:54.345Z,7044
2017-08-09T07:43:54.643Z,8996
2017-08-09T07:44:54.010Z,10868
2017-08-09T07:45:53.995Z,11904
2017-08-09T07:46:53.677Z,12144
2017-08-09T07:47:53.663Z,13008
2017-08-09T07:48:54.281Z,13508
2017-08-09T07:49:54.780Z,13568
2017-08-09T07:50:53.943Z,12808
2017-08-09T07:51:53.945Z,13292
2017-08-09T07:52:54.231Z,12768
2017-08-09T07:53:53.916Z,10024
2017-08-09T07:54:54.531Z,9224
2017-08-09T07:55:54.211Z,8728
2017-08-09T07:56:54.511Z,7948
2017-08-09T07:57:53.914Z,7820
2017-08-09T07:58:53.866Z,7456
2017-08-09T07:59:54.164Z,6700
2017-08-09T08:00:53.845Z,6944
2017-08-09T08:01:54.149Z,8028
2017-08-09T08:02:54.137Z,8792
2017-08-09T08:03:53.812Z,6848
2017-08-09T08:04:53.798Z,5408
2017-08-09T08:05:54.422Z,6332
2017-08-09T08:06:54.095Z,7124
2017-08-09T08:07:53.781Z,7972
2017-08-09T08:08:54.077Z,5100
2017-08-09T08:09:54.396Z,5392
2017-08-09T08:10:54.367Z,7144
2017-08-09T08:11:54.051Z,8652
2017-08-09T08:12:53.734Z,8348
2017-08-09T08:13:53.405Z,8084
2017-08-09T08:14:54.336Z,7924
2017-08-09T08:15:54.327Z,7376
2017-08-09T08:16:54.330Z,7412
2017-08-09T08:17:54.301Z,8032
2017-08-09T08:18:53.664Z,7600
2017-08-09T08:19:54.285Z,8112
2017-08-09T08:20:54.270Z,9280
2017-08-09T08:21:53.952Z,7512
2017-08-09T08:22:53.629Z,5328
2017-08-09T08:23:53.927Z,4644
2017-08-09T08:24:53.918Z,4780
2017-08-09T08:25:54.227Z,5600
2017-08-09T08:26:53.892Z,6360
2017-08-09T08:27:54.255Z,6872
2017-08-09T08:28:54.192Z,7764
2017-08-09T08:29:54.192Z,7824
2017-08-09T08:30:53.859Z,9036
2017-08-09T08:31:53.228Z,9776
2017-08-09T08:32:53.524Z,10440
2017-08-09T08:33:54.142Z,12816
2017-08-09T08:34:53.820Z,14080
2017-08-09T08:35:53.180Z,9308
2017-08-09T08:36:53.801Z,8336
2017-08-09T08:37:53.470Z,11420
2017-08-09T08:38:53.470Z,14204
2017-08-09T08:39:53.779Z,12924
2017-08-09T08:40:53.768Z,11180
2017-08-09T08:41:54.060Z,12352
2017-08-09T08:42:54.055Z,15140
2017-08-09T08:43:54.043Z,11992
2017-08-09T08:44:53.722Z,11992
2017-08-09T08:45:53.819Z,12260
2017-08-09T08:46:53.394Z,12880
2017-08-09T08:47:54.008Z,14004
2017-08-09T08:48:53.379Z,11692
2017-08-09T08:49:54.004Z,12420
2017-08-09T08:50:53.986Z,13540
2017-08-09T08:51:53.343Z,10500
2017-08-09T08:52:53.341Z,9428
2017-08-09T08:53:53.953Z,7856
2017-08-09T08:54:53.636Z,8220
2017-08-09T08:55:53.961Z,13484
2017-08-09T08:56:53.639Z,9508
2017-08-09T08:57:53.918Z,8132
2017-08-09T08:58:53.902Z,8116
2017-08-09T08:59:53.589Z,8916
2017-08-09T09:00:53.268Z,10288
2017-08-09T09:01:53.878Z,10768
2017-08-09T09:02:53.241Z,10488
2017-08-09T09:03:52.928Z,9400
2017-08-09T09:04:53.856Z,8796
2017-08-09T09:05:53.534Z,8852
2017-08-09T09:06:52.896Z,9948
2017-08-09T09:07:53.514Z,10288
2017-08-09T09:08:53.501Z,9816
2017-08-09T09:09:53.809Z,10392
2017-08-09T09:10:53.492Z,10112
2017-08-09T09:11:53.163Z,9132
2017-08-09T09:12:53.467Z,9636
2017-08-09T09:13:53.777Z,11928
2017-08-09T09:14:53.779Z,13604
2017-08-09T09:15:53.458Z,12824
2017-08-09T09:16:53.125Z,13012
2017-08-09T09:17:53.425Z,12544
2017-08-09T09:18:53.418Z,13768
2017-08-09T09:19:53.406Z,15844
2017-08-09T09:20:53.394Z,16096
2017-08-09T09:21:53.702Z,15796
2017-08-09T09:22:53.376Z,15788
2017-08-09T09:23:53.376Z,15088
2017-08-09T09:24:53.056Z,14552
2017-08-09T09:25:53.384Z,13136
2017-08-09T09:26:53.653Z,12544
2017-08-09T09:27:53.025Z,11788
2017-08-09T09:28:53.334Z,12212
2017-08-09T09:29:53.012Z,11452
2017-08-09T09:30:53.310Z,11384
2017-08-09T09:31:53.305Z,12300
2017-08-09T09:32:53.605Z,11972
2017-08-09T09:33:53.284Z,11480
2017-08-09T09:34:53.170Z,10844
2017-08-09T09:35:52.953Z,10676
2017-08-09T09:36:52.949Z,11284
2017-08-09T09:37:53.292Z,11796
2017-08-09T09:38:53.561Z,11828
2017-08-09T09:39:53.245Z,10920
2017-08-09T09:40:52.929Z,11068
2017-08-09T09:41:53.219Z,10400
2017-08-09T09:42:52.895Z,13192
2017-08-09T09:43:53.199Z,14704
2017-08-09T09:44:53.498Z,14236
2017-08-09T09:45:52.877Z,13616
2017-08-09T09:46:53.498Z,13844
2017-08-09T09:47:52.849Z,13764
2017-08-09T09:48:53.207Z,12544
2017-08-09T09:49:53.152Z,11612
2017-08-09T09:50:52.829Z,12164
2017-08-09T09:51:53.129Z,12124
2017-08-09T09:52:52.808Z,12368
2017-08-09T09:53:52.857Z,10768
2017-08-09T09:54:52.482Z,9352
2017-08-09T09:55:52.787Z,8768
2017-08-09T09:56:52.772Z,8312
2017-08-09T09:57:53.079Z,8016
2017-08-09T09:58:52.806Z,7844
2017-08-09T09:59:52.758Z,7724
2017-08-09T10:00:53.362Z,8516
2017-08-09T10:01:53.357Z,9092
2017-08-09T10:02:53.041Z,10084
2017-08-09T10:03:53.028Z,9844
2017-08-09T10:04:53.338Z,10536
2017-08-09T10:05:53.326Z,10120
2017-08-09T10:06:52.997Z,9948
2017-08-09T10:07:53.324Z,10296
2017-08-09T10:08:53.350Z,10424
2017-08-09T10:09:52.976Z,10460
2017-08-09T10:10:52.966Z,10384
2017-08-09T10:11:52.646Z,9780
2017-08-09T10:12:52.642Z,10180
2017-08-09T10:13:52.946Z,10416
2017-08-09T10:14:52.949Z,11324
2017-08-09T10:15:52.932Z,11808
2017-08-09T10:16:53.237Z,11988
2017-08-09T10:17:52.947Z,12640
2017-08-09T10:18:53.222Z,13544
2017-08-09T10:19:52.583Z,15112
2017-08-09T10:20:52.574Z,16640
2017-08-09T10:21:52.880Z,14452
2017-08-09T10:22:52.871Z,15980
2017-08-09T10:23:52.866Z,17120
2017-08-09T10:24:52.859Z,16576
2017-08-09T10:25:53.153Z,18496
2017-08-09T10:26:52.526Z,15704
2017-08-09T10:27:52.842Z,14212
2017-08-09T10:28:53.185Z,15560
2017-08-09T10:29:52.509Z,15552
2017-08-09T10:30:52.810Z,15912
2017-08-09T10:31:52.802Z,17824
2017-08-09T10:32:53.119Z,20128
2017-08-09T10:33:52.787Z,23008
2017-08-09T10:34:52.473Z,24992
2017-08-09T10:35:52.144Z,21760
2017-08-09T10:36:52.759Z,23040
2017-08-09T10:37:52.765Z,43040
2017-08-09T10:38:52.763Z,48864
2017-08-09T10:39:52.746Z,71968
2017-08-09T10:40:52.742Z,52416
2017-08-09T10:41:53.045Z,39552
2017-08-09T10:42:53.045Z,41920
2017-08-09T10:43:52.403Z,38496
2017-08-09T10:44:52.776Z,33696
2017-08-09T10:45:52.400Z,27776
2017-08-09T10:46:52.389Z,15644
2017-08-09T10:47:52.096Z,18560
2017-08-09T10:48:53.002Z,45920
2017-08-09T10:49:52.717Z,43712
2017-08-09T10:50:52.055Z,77280
2017-08-09T10:51:52.677Z,56064
2017-08-09T10:52:52.987Z,95904
2017-08-09T10:53:52.349Z,21920
2017-08-09T10:54:52.664Z,26400
2017-08-09T10:55:52.342Z,97888
2017-08-09T10:56:52.653Z,96064
2017-08-09T10:57:52.332Z,96288
2017-08-09T10:58:52.967Z,82080
2017-08-09T10:59:52.640Z,85344
2017-08-09T11:00:52.707Z,86784
2017-08-09T11:01:52.949Z,82144
2017-08-09T11:02:52.010Z,42528
2017-08-09T11:03:52.337Z,35712
2017-08-09T11:04:52.947Z,98784
2017-08-09T11:05:52.630Z,50432
2017-08-09T11:06:52.937Z,96352
2017-08-09T11:07:52.632Z,79488
2017-08-09T11:08:52.629Z,38592
2017-08-09T11:09:52.619Z,42144
2017-08-09T11:10:52.617Z,42112
2017-08-09T11:11:52.448Z,73728
2017-08-09T11:12:52.620Z,29824
2017-08-09T11:13:52.935Z,14576
2017-08-09T11:14:51.991Z,18976
2017-08-09T11:15:52.609Z,19264
2017-08-09T11:16:52.306Z,19136
2017-08-09T11:17:52.617Z,20096
2017-08-09T11:18:52.616Z,18016
2017-08-09T11:19:52.918Z,54880
2017-08-09T11:20:52.915Z,56992
2017-08-09T11:21:52.608Z,49536
2017-08-09T11:22:52.642Z,23328
2017-08-09T11:23:52.604Z,19744
2017-08-09T11:24:52.597Z,31744
2017-08-09T11:25:52.623Z,80096
2017-08-09T11:26:52.291Z,77536
2017-08-09T11:27:52.909Z,68512
2017-08-09T11:28:52.283Z,70048
2017-08-09T11:29:52.903Z,74432
2017-08-09T11:30:52.580Z,50400
2017-08-09T11:31:52.908Z,82080
2017-08-09T11:32:52.591Z,46208
2017-08-09T11:33:52.585Z,79200
2017-08-09T11:34:52.467Z,41056
2017-08-09T11:35:52.274Z,80896
2017-08-09T11:36:52.273Z,81568
2017-08-09T11:37:52.266Z,17760
2017-08-09T11:38:52.890Z,92096
2017-08-09T11:39:52.601Z,93536
2017-08-09T11:40:52.273Z,93824
2017-08-09T11:41:52.896Z,89984
2017-08-09T11:42:52.578Z,89696
2017-08-09T11:43:52.586Z,86208
2017-08-09T11:44:52.583Z,80032
2017-08-09T11:45:52.586Z,50592
2017-08-09T11:46:52.271Z,65600
2017-08-09T11:47:52.279Z,69376
2017-08-09T11:48:52.587Z,49312
2017-08-09T11:49:52.586Z,51648
2017-08-09T11:50:52.593Z,31488
2017-08-09T11:51:52.930Z,12724
2017-08-09T11:52:52.278Z,16192
2017-08-09T11:53:52.591Z,19072
2017-08-09T11:54:52.285Z,80672
2017-08-09T11:55:52.910Z,30816
2017-08-09T11:56:52.591Z,71552
2017-08-09T11:57:52.605Z,33888
2017-08-09T11:58:52.276Z,13684
2017-08-09T11:59:52.598Z,13504
2017-08-09T12:00:52.592Z,52320
2017-08-09T12:01:52.285Z,65664
2017-08-09T12:02:52.590Z,49728
2017-08-09T12:03:52.591Z,43584
2017-08-09T12:04:52.902Z,86912
2017-08-09T12:05:52.303Z,93120
2017-08-09T12:06:52.592Z,92320
2017-08-09T12:07:52.583Z,90816
2017-08-09T12:08:52.588Z,95712
2017-08-09T12:09:52.899Z,76352
2017-08-09T12:10:52.592Z,80704
2017-08-09T12:11:52.597Z,76832
2017-08-09T12:12:52.896Z,54464
2017-08-09T12:13:52.289Z,17984
2017-08-09T12:14:52.288Z,18304
2017-08-09T12:15:52.338Z,15788
2017-08-09T12:16:52.287Z,11696
2017-08-09T12:17:52.287Z,10708
2017-08-09T12:18:52.282Z,11940
2017-08-09T12:19:52.286Z,13032
2017-08-09T12:20:52.601Z,14464
2017-08-09T12:21:52.907Z,18688
2017-08-09T12:22:52.299Z,17152
2017-08-09T12:23:52.276Z,20512
2017-08-09T12:24:52.586Z,50592
2017-08-09T12:25:52.950Z,86624
2017-08-09T12:26:52.584Z,87424
2017-08-09T12:27:52.595Z,75648
2017-08-09T12:28:52.896Z,28416
2017-08-09T12:29:52.575Z,86976
2017-08-09T12:30:52.600Z,84192
2017-08-09T12:31:52.594Z,75296
2017-08-09T12:32:52.585Z,88544
2017-08-09T12:33:52.890Z,89600
2017-08-09T12:34:52.600Z,16852
2017-08-09T12:35:52.264Z,83360
2017-08-09T12:36:52.573Z,69376
2017-08-09T12:37:52.595Z,73152
2017-08-09T12:38:52.583Z,71040
2017-08-09T12:39:52.904Z,44384
2017-08-09T12:40:52.582Z,12656
2017-08-09T12:41:52.891Z,10980
2017-08-09T12:42:52.268Z,15228
2017-08-09T12:43:52.892Z,29760
2017-08-09T12:44:52.261Z,51936
2017-08-09T12:45:52.580Z,65120
2017-08-09T12:46:52.594Z,72032
2017-08-09T12:47:52.264Z,82976
2017-08-09T12:48:52.574Z,85856
2017-08-09T12:49:52.259Z,72640
2017-08-09T12:50:52.259Z,86560
2017-08-09T12:51:52.575Z,77408
2017-08-09T12:52:52.949Z,76576
2017-08-09T12:53:52.285Z,74720
2017-08-09T12:54:52.898Z,68032
2017-08-09T12:55:52.574Z,72256
2017-08-09T12:56:52.885Z,74336
2017-08-09T12:57:52.582Z,75616
2017-08-09T12:58:52.577Z,72160
2017-08-09T12:59:52.605Z,18688
2017-08-09T13:00:52.624Z,69920
2017-08-09T13:01:51.956Z,12464
2017-08-09T13:02:52.265Z,13680
2017-08-09T13:03:52.590Z,14100
2017-08-09T13:04:52.301Z,15176
2017-08-09T13:05:52.892Z,41568
2017-08-09T13:06:52.900Z,11620
2017-08-09T13:07:52.591Z,10184
2017-08-09T13:08:51.968Z,10624
2017-08-09T13:09:52.907Z,10256
2017-08-09T13:10:52.584Z,11996
2017-08-09T13:11:52.580Z,14144
2017-08-09T13:12:52.594Z,16052
2017-08-09T13:13:52.583Z,80544
2017-08-09T13:14:52.882Z,72192
2017-08-09T13:15:52.575Z,65632
2017-08-09T13:16:52.926Z,67392
2017-08-09T13:17:52.570Z,70496
2017-08-09T13:18:52.881Z,69952
2017-08-09T13:19:52.876Z,82112
2017-08-09T13:20:52.254Z,87424
2017-08-09T13:21:52.873Z,63200
2017-08-09T13:22:52.244Z,73792
2017-08-09T13:23:52.874Z,74176
2017-08-09T13:24:52.556Z,73440
2017-08-09T13:25:52.867Z,86400
2017-08-09T13:26:53.146Z,84640
2017-08-09T13:27:52.246Z,91712
2017-08-09T13:28:52.871Z,94848
2017-08-09T13:29:52.900Z,96384
2017-08-09T13:30:52.241Z,95808
2017-08-09T13:31:52.872Z,93856
2017-08-09T13:32:52.558Z,92288
2017-08-09T13:33:52.247Z,96832
2017-08-09T13:34:52.761Z,83136
2017-08-09T13:35:52.259Z,92352